Time;durP1;ratioP1;P1;durP2;ratioP2;P2;SDS_P1;SDS_P2;PMS_P1;PMS_P2;Temp;Humidity;BMP_temperature;BMP_pressure;BME280_temperature;BME280_humidity;BME280_pressure;Samples;Min_cycle;Max_cycle;Signal;HPM_P1;HPM_P2
2023/12/27 00:00:29;;;;;;;;;15.00;11.25;;;;;12.25;74.22;101435.94;5038942;28;74543;-68
2023/12/27 00:02:55;;;;;;;;;11.00;10.50;;;;;12.25;74.22;101440.28;5030655;28;46225;-68
2023/12/27 00:05:20;;;;;;;;;14.75;12.50;;;;;12.27;74.09;101446.38;5035632;28;45491;-67
2023/12/27 00:07:45;;;;;;;;;14.00;10.75;;;;;12.25;73.90;101454.31;5028697;28;63410;-68
2023/12/27 00:10:11;;;;;;;;;11.00;9.00;;;;;12.24;74.14;101460.44;5038704;28;75384;-68
2023/12/27 00:12:36;;;;;;;;;13.25;9.00;;;;;12.26;73.82;101444.66;5011526;28;45332;-68
2023/12/27 00:15:02;;;;;;;;;12.75;11.50;;;;;12.24;73.82;101433.34;5041064;28;45463;-67
2023/12/27 00:17:27;;;;;;;;;16.50;7.75;;;;;12.24;73.92;101430.72;5034414;28;45476;-68
2023/12/27 00:19:52;;;;;;;;;12.75;10.25;;;;;12.19;73.65;101427.34;5027260;28;73460;-68
2023/12/27 00:22:17;;;;;;;;;13.75;10.50;;;;;12.19;73.96;101422.09;5035309;28;45218;-68
2023/12/27 00:24:43;;;;;;;;;10.50;8.00;;;;;12.18;73.66;101434.31;5019874;28;57755;-68
2023/12/27 00:27:08;;;;;;;;;12.50;9.75;;;;;12.15;73.94;101434.41;5024839;28;45360;-68
2023/12/27 00:29:33;;;;;;;;;12.75;9.75;;;;;12.15;74.00;101437.88;5037490;28;53981;-68
2023/12/27 00:31:59;;;;;;;;;13.50;9.75;;;;;12.13;73.56;101430.97;5044016;28;59341;-68
2023/12/27 00:34:24;;;;;;;;;16.25;11.50;;;;;12.13;73.53;101429.19;5036222;28;45428;-68
2023/12/27 00:36:50;;;;;;;;;14.00;9.00;;;;;12.14;73.56;101423.03;5018024;28;45412;-68
2023/12/27 00:39:16;;;;;;;;;10.25;9.25;;;;;12.14;73.84;101409.91;5017361;28;46057;-68
2023/12/27 00:41:42;;;;;;;;;10.25;9.25;;;;;12.15;73.53;101405.53;5014795;28;45842;-68
2023/12/27 00:44:07;;;;;;;;;14.50;9.75;;;;;12.14;73.41;101412.53;5030297;28;66286;-68
2023/12/27 00:46:32;;;;;;;;;10.50;9.75;;;;;12.13;73.64;101415.22;5040923;28;45363;-68
2023/12/27 00:48:58;;;;;;;;;11.00;9.00;;;;;12.11;73.49;101396.88;5040286;28;65669;-68
2023/12/27 00:51:23;;;;;;;;;13.25;9.75;;;;;12.09;73.50;101393.44;5035306;28;56569;-68
2023/12/27 00:53:49;;;;;;;;;17.50;12.00;;;;;12.09;73.63;101401.31;5038131;28;68844;-68
2023/12/27 00:56:15;;;;;;;;;12.75;11.00;;;;;12.08;73.23;101403.97;5023290;28;45471;-68
2023/12/27 00:58:40;;;;;;;;;11.00;10.00;;;;;12.07;73.64;101407.47;5021266;28;45316;-67
2023/12/27 01:01:06;;;;;;;;;8.00;8.00;;;;;12.05;73.87;101410.13;5040591;28;45365;-68
2023/12/27 01:03:31;;;;;;;;;12.50;10.50;;;;;12.06;73.67;101403.13;5040630;28;45445;-68
2023/12/27 01:05:56;;;;;;;;;11.00;9.75;;;;;12.04;73.79;101390.06;5036518;28;56912;-68
2023/12/27 01:08:22;;;;;;;;;9.50;9.00;;;;;12.04;73.69;101373.44;5037703;28;75523;-68
2023/12/27 01:10:47;;;;;;;;;7.75;5.50;;;;;12.03;73.91;101387.47;5028857;28;69352;-68
2023/12/27 01:13:12;;;;;;;;;12.75;11.75;;;;;12.05;73.76;101393.53;5027686;28;65853;-68
2023/12/27 01:15:37;;;;;;;;;18.25;11.00;;;;;12.06;73.64;101390.03;5031995;28;72039;-68
2023/12/27 01:18:03;;;;;;;;;10.00;9.25;;;;;12.05;73.29;101393.53;5033244;28;68105;-68
2023/12/27 01:20:28;;;;;;;;;10.25;10.00;;;;;12.04;73.59;101403.16;5034228;28;61564;-67
2023/12/27 01:22:53;;;;;;;;;11.25;10.25;;;;;12.03;73.29;101401.44;5040287;28;47732;-68
2023/12/27 01:25:19;;;;;;;;;12.00;10.75;;;;;12.04;73.79;101407.53;5035251;28;58274;-68
2023/12/27 01:27:46;;;;;;;;;11.00;6.75;;;;;12.02;73.55;101402.31;5033991;28;75508;-68
2023/12/27 01:30:12;;;;;;;;;12.25;9.75;;;;;12.02;73.35;101398.84;5033934;28;45399;-68
2023/12/27 01:32:37;;;;;;;;;15.00;10.00;;;;;12.01;73.08;101394.50;5029439;28;45417;-68
2023/12/27 01:35:02;;;;;;;;;9.25;8.75;;;;;11.97;73.30;101385.84;5037071;28;63895;-68
2023/12/27 01:37:28;;;;;;;;;9.00;8.25;;;;;11.93;73.64;101382.44;5040014;28;46310;-68
2023/12/27 01:39:53;;;;;;;;;11.75;10.50;;;;;11.92;73.51;101382.47;5032518;28;72256;-68
2023/12/27 01:42:19;;;;;;;;;10.75;9.75;;;;;11.93;73.56;101378.91;5029645;28;64991;-68
2023/12/27 01:44:44;;;;;;;;;10.75;9.00;;;;;11.93;73.42;101378.91;5022486;28;45229;-68
2023/12/27 01:47:10;;;;;;;;;12.75;9.00;;;;;11.92;73.40;101385.09;5029376;28;50167;-68
2023/12/27 01:49:35;;;;;;;;;12.75;9.25;;;;;11.90;73.61;101385.09;5016358;28;45705;-68
2023/12/27 01:52:01;;;;;;;;;11.75;9.75;;;;;11.88;73.54;101401.72;5037423;28;45684;-68
2023/12/27 01:54:26;;;;;;;;;10.00;8.50;;;;;11.82;72.97;101391.38;5005495;28;45457;-68
2023/12/27 01:56:52;;;;;;;;;15.75;7.50;;;;;11.77;73.16;101386.22;5030782;28;72403;-68
2023/12/27 01:59:17;;;;;;;;;11.75;9.00;;;;;11.73;73.45;101379.34;5039430;28;53503;-68
2023/12/27 02:01:43;;;;;;;;;10.25;8.00;;;;;11.71;73.78;101381.13;5014664;28;47465;-68
2023/12/27 02:04:08;;;;;;;;;8.75;8.25;;;;;11.68;73.71;101378.56;5010811;28;45369;-68
2023/12/27 02:06:34;;;;;;;;;9.50;8.25;;;;;11.66;73.60;101352.38;5029501;28;45565;-68
2023/12/27 02:08:59;;;;;;;;;12.25;11.00;;;;;11.63;73.99;101347.19;5039337;28;45308;-68
2023/12/27 02:11:25;;;;;;;;;11.00;7.75;;;;;11.62;73.93;101360.34;5040098;28;45431;-68
2023/12/27 02:13:50;;;;;;;;;9.00;7.50;;;;;11.60;73.94;101347.28;5020364;28;74741;-68
2023/12/27 02:16:16;;;;;;;;;12.00;8.75;;;;;11.58;73.80;101364.81;5030941;28;72786;-68
2023/12/27 02:18:41;;;;;;;;;8.50;6.25;;;;;11.59;73.63;101383.09;5015276;28;45256;-68
2023/12/27 02:21:07;;;;;;;;;8.75;8.25;;;;;11.62;73.82;101391.81;5032760;28;69397;-68
2023/12/27 02:23:33;;;;;;;;;8.75;8.50;;;;;11.62;74.11;101370.84;5033989;28;72233;-68
2023/12/27 02:25:59;;;;;;;;;11.50;8.50;;;;;11.63;73.69;101356.81;5014119;28;46354;-68
2023/12/27 02:28:25;;;;;;;;;9.00;7.00;;;;;11.62;73.95;101345.47;5013293;28;55743;-68
2023/12/27 02:30:54;;;;;;;;;8.50;7.00;;;;;11.63;73.75;101364.69;5033929;28;55830;-68
2023/12/27 02:33:19;;;;;;;;;8.25;6.75;;;;;11.59;73.37;101354.25;5033843;28;45472;-68
2023/12/27 02:35:45;;;;;;;;;8.75;7.75;;;;;11.61;73.61;101359.47;5034586;28;46490;-68
2023/12/27 02:38:10;;;;;;;;;7.75;7.00;;;;;11.62;73.35;101369.06;5032883;28;46264;-68
2023/12/27 02:40:36;;;;;;;;;7.75;7.00;;;;;11.62;73.40;101363.84;5036262;28;45724;-68
2023/12/27 02:43:01;;;;;;;;;7.75;7.00;;;;;11.61;73.50;101354.22;5030376;28;68273;-68
2023/12/27 02:45:26;;;;;;;;;9.00;7.00;;;;;11.62;73.59;101347.25;5020634;28;62756;-68
2023/12/27 02:47:52;;;;;;;;;6.50;6.50;;;;;11.61;73.57;101330.63;5038352;28;70035;-68
2023/12/27 02:50:17;;;;;;;;;10.50;7.00;;;;;11.61;73.38;101324.53;5014937;28;62559;-68
2023/12/27 02:52:42;;;;;;;;;8.00;7.00;;;;;11.61;73.48;101320.16;5039212;28;45318;-68
2023/12/27 02:55:08;;;;;;;;;6.00;5.50;;;;;11.60;73.14;101300.09;5015915;28;45449;-68
2023/12/27 02:57:34;;;;;;;;;6.50;4.75;;;;;11.58;72.86;101307.13;5033408;28;45273;-68
2023/12/27 02:59:59;;;;;;;;;11.00;8.00;;;;;11.55;73.16;101302.81;5029875;28;45387;-68
2023/12/27 03:02:24;;;;;;;;;7.00;6.25;;;;;11.54;73.50;101308.97;5021087;28;45258;-68
2023/12/27 03:04:50;;;;;;;;;5.00;5.00;;;;;11.55;73.30;101328.16;5020405;28;72623;-68
2023/12/27 03:07:16;;;;;;;;;9.00;6.50;;;;;11.55;73.28;101328.16;5034795;28;45401;-68
2023/12/27 03:09:42;;;;;;;;;8.50;5.00;;;;;11.55;73.01;101322.91;5028698;28;45299;-68
2023/12/27 03:12:07;;;;;;;;;8.00;7.00;;;;;11.56;72.98;101322.00;5009486;28;45307;-68
2023/12/27 03:14:33;;;;;;;;;9.75;6.75;;;;;11.58;73.14;101325.47;5027839;28;46456;-68
2023/12/27 03:16:59;;;;;;;;;8.00;6.25;;;;;11.58;72.85;101318.47;5019172;28;46621;-68
2023/12/27 03:19:25;;;;;;;;;8.50;6.00;;;;;11.58;73.15;101315.84;5030424;28;45274;-68
2023/12/27 03:21:50;;;;;;;;;7.50;6.00;;;;;11.62;72.81;101321.03;5011307;28;45369;-68
2023/12/27 03:24:15;;;;;;;;;10.00;7.50;;;;;11.63;72.64;101309.63;5028918;28;48010;-68
2023/12/27 03:26:41;;;;;;;;;9.50;6.75;;;;;11.64;73.08;101291.25;5016120;28;52487;-68
2023/12/27 03:29:06;;;;;;;;;8.00;5.25;;;;;11.62;72.53;101300.91;5019484;28;60335;-68
2023/12/27 03:31:31;;;;;;;;;7.25;6.00;;;;;11.64;72.68;101306.97;5029253;28;73663;-68
2023/12/27 03:33:57;;;;;;;;;7.75;7.00;;;;;11.61;72.88;101296.56;5017276;28;73890;-68
2023/12/27 03:36:23;;;;;;;;;8.75;5.25;;;;;11.64;72.78;101286.00;5020504;28;45516;-68
2023/12/27 03:38:49;;;;;;;;;7.50;5.50;;;;;11.64;72.53;101285.16;5036383;28;45167;-68
2023/12/27 03:41:14;;;;;;;;;5.50;4.00;;;;;11.64;72.80;101282.53;5032165;28;45495;-68
2023/12/27 03:43:39;;;;;;;;;8.50;6.75;;;;;11.63;72.29;101278.16;5035372;28;75481;-68
2023/12/27 03:46:05;;;;;;;;;5.75;5.00;;;;;11.63;72.39;101273.78;5022998;28;64099;-68
2023/12/27 03:48:30;;;;;;;;;10.50;5.25;;;;;11.63;72.52;101268.53;5031936;28;69196;-68
2023/12/27 03:50:55;;;;;;;;;11.25;5.50;;;;;11.63;72.45;101259.81;5038494;28;73269;-68
2023/12/27 03:53:21;;;;;;;;;6.25;5.50;;;;;11.63;72.57;101268.53;5034496;28;73370;-68
2023/12/27 03:55:46;;;;;;;;;11.50;7.00;;;;;11.64;72.14;101269.44;5033745;28;45354;-68
2023/12/27 03:58:11;;;;;;;;;8.25;6.00;;;;;11.66;72.14;101268.47;5041478;28;57653;-68
2023/12/27 04:00:37;;;;;;;;;7.50;5.50;;;;;11.66;72.20;101263.22;5034253;28;50616;-68
2023/12/27 04:03:02;;;;;;;;;7.50;6.00;;;;;11.64;72.27;101259.78;5013435;28;75567;-68
2023/12/27 04:05:27;;;;;;;;;8.00;5.50;;;;;11.64;72.61;101264.19;5034007;28;45314;-68
2023/12/27 04:07:54;;;;;;;;;8.25;7.00;;;;;11.64;72.36;101262.41;5041313;28;64655;-68
2023/12/27 04:10:19;;;;;;;;;7.00;6.50;;;;;11.62;72.10;101271.22;5024076;28;45294;-68
2023/12/27 04:12:44;;;;;;;;;5.25;5.00;;;;;11.62;72.07;101268.59;5032184;28;66215;-68
2023/12/27 04:15:10;;;;;;;;;7.25;6.25;;;;;11.57;72.16;101261.69;5041600;28;45447;-68
2023/12/27 04:17:35;;;;;;;;;8.50;6.25;;;;;11.57;72.19;101260.81;5018535;28;45311;-68
2023/12/27 04:20:00;;;;;;;;;4.50;3.25;;;;;11.55;72.11;101247.75;5038330;28;45333;-68
2023/12/27 04:22:26;;;;;;;;;10.25;4.50;;;;;11.55;72.09;101244.28;5018072;28;46171;-68
2023/12/27 04:24:51;;;;;;;;;8.00;6.25;;;;;11.51;72.31;101237.38;5037966;28;63421;-68
2023/12/27 04:27:16;;;;;;;;;5.50;4.25;;;;;11.49;72.23;101229.56;5034674;28;69297;-68
2023/12/27 04:29:42;;;;;;;;;7.75;5.00;;;;;11.48;72.12;101214.72;5038262;28;69216;-68
2023/12/27 04:32:07;;;;;;;;;7.00;4.75;;;;;11.46;72.51;101215.66;5033979;28;75475;-68
2023/12/27 04:34:32;;;;;;;;;8.00;5.50;;;;;11.43;72.05;101219.19;5025172;28;75106;-68
2023/12/27 04:36:57;;;;;;;;;5.00;5.00;;;;;11.40;72.05;101214.91;5017586;28;67456;-68
2023/12/27 04:39:23;;;;;;;;;8.00;5.00;;;;;11.41;72.41;101226.25;5016515;28;73283;-68
2023/12/27 04:41:48;;;;;;;;;6.00;5.00;;;;;11.43;72.04;101220.97;5021877;28;45327;-69
2023/12/27 04:44:13;;;;;;;;;7.75;5.00;;;;;11.41;71.98;101210.50;5020646;28;56455;-68
2023/12/27 04:46:39;;;;;;;;;6.50;6.50;;;;;11.41;72.30;101207.91;5008521;28;55442;-68
2023/12/27 04:49:04;;;;;;;;;9.75;6.75;;;;;11.40;72.06;101217.53;5018248;28;64093;-69
2023/12/27 04:51:30;;;;;;;;;9.50;6.25;;;;;11.36;71.94;101197.50;5021052;28;46299;-68
2023/12/27 04:53:55;;;;;;;;;6.50;5.00;;;;;11.39;71.76;101199.22;5019730;28;45477;-68
2023/12/27 04:56:21;;;;;;;;;8.50;5.00;;;;;11.39;72.25;101204.44;5007806;28;45637;-68
2023/12/27 04:58:46;;;;;;;;;9.25;5.75;;;;;11.37;72.20;101203.63;5012986;28;65931;-68
2023/12/27 05:01:12;;;;;;;;;8.00;6.00;;;;;11.35;72.03;101219.38;4997175;28;48055;-68
2023/12/27 05:03:38;;;;;;;;;8.75;6.50;;;;;11.34;72.21;101209.78;5018956;28;69522;-68
2023/12/27 05:06:12;;;;;;;;;6.50;5.00;;;;;11.32;71.89;101201.09;5007670;28;45377;-68
2023/12/27 05:08:39;;;;;;;;;4.50;4.25;;;;;11.32;72.09;101201.09;5011241;28;45155;-69
2023/12/27 05:11:15;;;;;;;;;6.25;5.25;;;;;11.30;72.21;101210.75;5009142;28;47277;-68
2023/12/27 05:13:40;;;;;;;;;7.25;5.75;;;;;11.30;71.99;101216.00;5013057;28;45414;-68
2023/12/27 05:16:24;;;;;;;;;5.75;5.00;;;;;11.28;72.21;101209.06;5013618;28;45317;-68
2023/12/27 05:18:49;;;;;;;;;4.00;4.00;;;;;11.26;71.74;101195.13;5008585;28;45511;-68
2023/12/27 05:21:15;;;;;;;;;7.75;5.50;;;;;11.24;72.26;101199.56;5019858;28;45344;-68
2023/12/27 05:23:40;;;;;;;;;4.00;4.00;;;;;11.21;71.76;101203.97;5019454;28;45338;-68
2023/12/27 05:26:06;;;;;;;;;5.75;5.00;;;;;11.23;71.99;101216.19;5014861;28;45507;-68
2023/12/27 05:28:32;;;;;;;;;5.50;4.75;;;;;11.24;71.81;101202.16;5015320;28;65464;-68
2023/12/27 05:30:57;;;;;;;;;7.00;5.00;;;;;11.26;71.96;101211.75;5029659;28;46099;-68
2023/12/27 05:33:24;;;;;;;;;4.50;4.50;;;;;11.25;71.96;101202.13;5019144;28;45366;-68
2023/12/27 05:35:49;;;;;;;;;5.25;4.50;;;;;11.25;71.96;101199.53;5036129;28;45374;-68
2023/12/27 05:38:15;;;;;;;;;6.50;4.75;;;;;11.26;72.06;101203.00;5019291;28;45613;-68
2023/12/27 05:40:40;;;;;;;;;8.00;5.75;;;;;11.26;71.81;101195.13;5038542;28;53127;-68
2023/12/27 05:43:05;;;;;;;;;7.50;6.50;;;;;11.26;71.85;101192.50;5018858;28;45236;-68
2023/12/27 05:45:31;;;;;;;;;6.50;5.00;;;;;11.24;71.84;101199.56;5037373;28;60506;-69
2023/12/27 05:47:56;;;;;;;;;6.00;4.75;;;;;11.24;71.76;101197.78;5017479;28;65007;-68
2023/12/27 05:50:21;;;;;;;;;6.75;6.00;;;;;11.23;71.77;101195.22;5037607;28;58711;-68
2023/12/27 05:52:47;;;;;;;;;5.00;5.00;;;;;11.20;71.73;101183.88;5037708;28;45551;-68
2023/12/27 05:55:13;;;;;;;;;6.25;3.75;;;;;11.21;71.75;101182.16;5040357;28;45370;-68
2023/12/27 05:57:38;;;;;;;;;4.50;4.25;;;;;11.20;71.88;101176.03;5033996;28;45630;-68
2023/12/27 06:00:06;;;;;;;;;7.00;4.75;;;;;11.17;71.51;101176.13;5028949;28;46228;-68
2023/12/27 06:02:32;;;;;;;;;6.00;3.00;;;;;11.17;71.60;101190.97;5038469;28;45253;-68
2023/12/27 06:04:57;;;;;;;;;8.75;4.00;;;;;11.13;71.44;101187.53;5022356;28;45324;-68
2023/12/27 06:07:23;;;;;;;;;8.25;5.25;;;;;11.14;71.65;101196.28;5011168;28;75734;-68
2023/12/27 06:09:48;;;;;;;;;8.25;5.00;;;;;11.13;71.82;101200.66;5037415;28;74863;-68
2023/12/27 06:12:13;;;;;;;;;5.00;3.00;;;;;11.13;71.43;101194.56;5011557;28;71490;-68
2023/12/27 06:14:38;;;;;;;;;7.00;5.00;;;;;11.13;71.77;101197.16;5039197;28;61680;-68
2023/12/27 06:17:04;;;;;;;;;4.00;4.00;;;;;11.11;71.62;101194.56;5011421;28;70954;-68
2023/12/27 06:19:29;;;;;;;;;7.00;4.00;;;;;11.11;71.52;101199.81;5030471;28;45178;-68
2023/12/27 06:21:55;;;;;;;;;5.75;4.25;;;;;11.11;71.41;101217.31;5020986;28;70907;-68
2023/12/27 06:24:20;;;;;;;;;9.50;4.75;;;;;11.11;71.86;101199.81;5021662;28;49005;-68
2023/12/27 06:26:46;;;;;;;;;6.75;5.00;;;;;11.10;71.81;101195.50;5035611;28;59668;-68
2023/12/27 06:29:11;;;;;;;;;5.75;5.00;;;;;11.10;71.52;101202.47;5017089;28;45312;-68
2023/12/27 06:31:36;;;;;;;;;5.50;4.75;;;;;11.10;71.63;101202.47;5034721;28;45193;-68
2023/12/27 06:34:02;;;;;;;;;8.25;4.75;;;;;11.09;71.39;101195.53;5036969;28;45218;-68
2023/12/27 06:36:27;;;;;;;;;6.50;5.00;;;;;11.11;71.51;101204.19;5016958;28;45483;-68
2023/12/27 06:38:52;;;;;;;;;5.75;5.00;;;;;11.10;71.57;101194.59;5016240;28;45487;-69
2023/12/27 06:41:18;;;;;;;;;6.50;4.00;;;;;11.08;71.73;101199.88;5030871;28;73019;-68
2023/12/27 06:43:43;;;;;;;;;5.00;4.25;;;;;11.07;71.21;101198.16;5021525;28;45661;-68
2023/12/27 06:46:09;;;;;;;;;6.00;3.75;;;;;11.05;71.59;101191.22;5018963;28;45566;-69
2023/12/27 06:48:34;;;;;;;;;7.25;5.00;;;;;11.00;71.72;101181.72;5032563;28;75981;-68
2023/12/27 06:51:03;;;;;;;;;6.00;4.25;;;;;10.99;71.40;101177.38;5033289;28;45373;-68
2023/12/27 06:53:28;;;;;;;;;2.00;0.00;;;;;10.96;71.46;101177.44;5036569;28;45332;-68
2023/12/27 06:55:53;;;;;;;;;7.00;4.00;;;;;10.94;71.71;101179.25;5009011;28;45411;-68
2023/12/27 06:58:19;;;;;;;;;6.00;4.50;;;;;10.91;71.86;101181.06;5027708;28;73231;-68
2023/12/27 07:00:44;;;;;;;;;5.25;3.75;;;;;10.89;71.84;101181.09;5016503;28;70306;-68
2023/12/27 07:03:09;;;;;;;;;3.00;2.00;;;;;10.86;71.63;101175.06;5031604;28;67364;-68
2023/12/27 07:05:36;;;;;;;;;8.00;5.50;;;;;10.83;71.96;101173.34;5020867;28;64502;-68
2023/12/27 07:08:02;;;;;;;;;7.50;5.75;;;;;10.81;71.85;101173.38;5021138;28;47112;-68
2023/12/27 07:10:27;;;;;;;;;5.00;4.00;;;;;10.81;72.01;101180.38;5032499;28;45253;-68
2023/12/27 07:12:52;;;;;;;;;5.25;3.00;;;;;10.80;72.01;101170.78;5013608;28;45364;-68
2023/12/27 07:15:18;;;;;;;;;3.00;3.00;;;;;10.78;72.30;101168.25;5030316;28;45424;-68
2023/12/27 07:17:43;;;;;;;;;4.75;4.00;;;;;10.78;71.84;101170.84;5037428;28;47247;-68
2023/12/27 07:20:10;;;;;;;;;8.25;4.25;;;;;10.79;71.71;101172.56;5033923;28;73100;-68
2023/12/27 07:22:35;;;;;;;;;9.25;6.25;;;;;10.79;72.03;101167.31;5004759;28;45395;-68
2023/12/27 07:25:01;;;;;;;;;6.75;5.25;;;;;10.80;71.79;101158.59;5033311;28;45517;-68
2023/12/27 07:27:26;;;;;;;;;6.50;4.50;;;;;10.80;71.90;101162.94;5031277;28;68465;-68
2023/12/27 07:29:51;;;;;;;;;8.00;5.75;;;;;10.79;71.49;101171.72;5017286;28;45377;-68
2023/12/27 07:32:17;;;;;;;;;4.00;4.00;;;;;10.76;71.71;101167.38;5042112;28;45451;-68
2023/12/27 07:34:42;;;;;;;;;5.75;5.00;;;;;10.74;71.79;101163.09;5025542;28;46486;-68
2023/12/27 07:37:08;;;;;;;;;7.00;4.75;;;;;10.72;71.71;101154.41;5017956;28;74757;-68
2023/12/27 07:39:33;;;;;;;;;8.00;6.00;;;;;10.70;71.76;101164.06;5019043;28;45433;-68
2023/12/27 07:41:59;;;;;;;;;2.00;0.00;;;;;10.64;71.41;101154.53;5033374;28;45392;-68
2023/12/27 07:44:24;;;;;;;;;5.50;5.00;;;;;10.61;71.57;101150.25;5034892;28;45301;-68
2023/12/27 07:46:52;;;;;;;;;8.75;6.00;;;;;10.57;71.71;101159.06;5036874;28;45401;-68
2023/12/27 07:49:17;;;;;;;;;5.50;5.25;;;;;10.55;71.70;101155.63;5013680;28;45882;-69
2023/12/27 07:51:43;;;;;;;;;7.00;5.75;;;;;10.53;71.74;101160.00;5020222;28;68712;-69
2023/12/27 07:54:08;;;;;;;;;5.00;5.00;;;;;10.51;71.78;101164.41;5020837;28;45495;-69
2023/12/27 07:56:35;;;;;;;;;7.25;4.50;;;;;10.49;71.99;101163.56;5039802;28;46398;-69
2023/12/27 07:59:00;;;;;;;;;8.25;5.00;;;;;10.48;71.73;101147.91;5041162;28;45346;-68
2023/12/27 08:01:30;;;;;;;;;5.50;5.00;;;;;10.47;71.93;101154.91;5036892;28;45539;-69
2023/12/27 08:03:56;;;;;;;;;10.75;5.00;;;;;10.45;71.58;101148.84;5028170;28;45201;-68
2023/12/27 08:06:21;;;;;;;;;8.50;7.00;;;;;10.42;71.72;101156.75;5030570;28;76071;-69
2023/12/27 08:08:46;;;;;;;;;6.50;5.00;;;;;10.40;71.81;101156.78;5035092;28;45412;-69
2023/12/27 08:11:12;;;;;;;;;7.50;5.00;;;;;10.40;71.90;101155.91;5034581;28;64610;-68
2023/12/27 08:13:38;;;;;;;;;6.00;3.50;;;;;10.39;71.58;101149.84;5031060;28;45496;-68
2023/12/27 08:16:03;;;;;;;;;7.25;5.25;;;;;10.37;71.86;101154.19;5037361;28;45368;-68
2023/12/27 08:18:29;;;;;;;;;13.00;6.00;;;;;10.36;71.60;101146.41;5034153;28;45483;-67
2023/12/27 08:20:55;;;;;;;;;7.25;6.00;;;;;10.36;71.87;101146.41;5036911;28;45448;-68
2023/12/27 08:23:20;;;;;;;;;5.50;5.00;;;;;10.35;71.89;101153.38;5019020;28;45468;-67
2023/12/27 08:25:46;;;;;;;;;12.50;6.00;;;;;10.35;71.71;101165.59;5033884;28;45338;-68
2023/12/27 08:28:12;;;;;;;;;11.00;5.00;;;;;10.34;71.71;101167.38;5009480;28;45362;-68
2023/12/27 08:30:37;;;;;;;;;8.25;5.00;;;;;10.35;71.60;101163.84;5016423;28;45476;-68
2023/12/27 08:33:06;;;;;;;;;7.50;7.50;;;;;10.35;71.64;101160.38;5036334;28;45448;-68
2023/12/27 08:35:35;;;;;;;;;26.25;21.75;;;;;10.35;71.34;101163.84;5034204;28;46569;-68
2023/12/27 08:38:01;;;;;;;;;7.50;6.25;;;;;10.37;71.55;101167.28;5038577;28;46060;-68
2023/12/27 08:40:28;;;;;;;;;7.75;5.50;;;;;10.37;71.18;101162.06;5037154;28;45444;-67
2023/12/27 08:42:54;;;;;;;;;11.75;7.75;;;;;10.35;71.34;101156.00;5029372;28;45372;-68
2023/12/27 08:45:19;;;;;;;;;11.00;6.00;;;;;10.35;70.93;101156.00;5041159;28;46320;-68
2023/12/27 08:47:45;;;;;;;;;8.75;7.25;;;;;10.35;71.00;101147.28;5033254;28;45626;-69
2023/12/27 08:50:10;;;;;;;;;6.75;6.75;;;;;10.34;71.06;101143.81;5032541;28;45237;-67
2023/12/27 08:52:36;;;;;;;;;9.75;6.00;;;;;10.35;70.97;101142.91;5031048;28;45168;-68
2023/12/27 08:55:03;;;;;;;;;4.25;4.00;;;;;10.36;70.69;101136.81;5031705;28;45617;-68
2023/12/27 08:57:28;;;;;;;;;6.25;5.25;;;;;10.36;70.51;101136.81;5017252;28;45336;-68
2023/12/27 08:59:54;;;;;;;;;6.75;5.00;;;;;10.35;70.58;101137.69;5023464;28;45460;-69
2023/12/27 09:02:19;;;;;;;;;7.75;4.25;;;;;10.35;70.59;101136.81;5015134;28;68265;-69
2023/12/27 09:04:44;;;;;;;;;8.25;6.00;;;;;10.35;70.30;101144.69;5006262;28;47250;-69
2023/12/27 09:07:10;;;;;;;;;7.00;5.50;;;;;10.34;70.19;101138.59;5038486;28;66177;-68
2023/12/27 09:09:35;;;;;;;;;5.00;4.00;;;;;10.35;70.09;101134.22;5030756;28;67636;-68
2023/12/27 09:12:04;;;;;;;;;6.50;5.00;;;;;10.36;70.13;101136.81;5030660;28;45567;-69
2023/12/27 09:14:29;;;;;;;;;7.25;5.25;;;;;10.35;69.86;101137.69;5020726;28;47365;-68
2023/12/27 09:16:54;;;;;;;;;4.00;3.50;;;;;10.35;69.80;101147.28;5019350;28;68994;-65
2023/12/27 09:19:20;;;;;;;;;10.00;7.00;;;;;10.30;69.42;101144.72;5034779;28;45341;-63
2023/12/27 09:21:46;;;;;;;;;14.00;6.00;;;;;10.19;69.38;101137.09;5027728;28;68424;-65
2023/12/27 09:24:11;;;;;;;;;10.50;7.25;;;;;10.10;69.14;101132.03;5017464;28;45442;-64
2023/12/27 09:26:37;;;;;;;;;7.25;5.00;;;;;10.03;69.32;101133.03;5019772;28;45378;-64
2023/12/27 09:29:02;;;;;;;;;10.00;6.50;;;;;9.97;69.30;101131.41;5022158;28;45385;-65
2023/12/27 09:31:30;;;;;;;;;6.75;3.50;;;;;9.93;69.32;101124.47;5037052;28;45400;-66
2023/12/27 09:34:02;;;;;;;;;7.00;5.00;;;;;9.87;69.28;101124.59;5034457;28;45384;-63
2023/12/27 09:36:27;;;;;;;;;8.25;5.25;;;;;9.84;69.43;101125.53;5014176;28;45475;-69
2023/12/27 09:38:53;;;;;;;;;7.50;6.25;;;;;9.88;69.57;101119.34;5010303;28;45319;-70
2023/12/27 09:41:19;;;;;;;;;11.00;7.25;;;;;9.93;69.79;101123.63;5019656;28;45573;-71
2023/12/27 09:43:45;;;;;;;;;8.25;7.00;;;;;9.99;69.46;101115.69;5023486;28;45492;-71
2023/12/27 09:46:14;;;;;;;;;10.75;6.50;;;;;10.04;69.33;101125.16;5022232;28;45406;-71
2023/12/27 09:48:41;;;;;;;;;11.00;5.75;;;;;10.10;69.42;101124.19;5022308;28;45277;-70
2023/12/27 09:51:07;;;;;;;;;7.00;4.25;;;;;10.14;69.08;101117.13;5042375;28;45570;-71
2023/12/27 09:53:32;;;;;;;;;6.75;4.75;;;;;10.21;68.89;101123.97;5019100;28;45508;-69
2023/12/27 09:55:59;;;;;;;;;7.00;7.00;;;;;10.29;68.84;101118.59;5031646;28;45234;-69
2023/12/27 09:58:28;;;;;;;;;11.50;5.50;;;;;10.36;68.56;101118.50;5018553;28;45481;-71
2023/12/27 10:01:00;;;;;;;;;7.75;6.75;;;;;10.40;68.35;101112.28;5032357;28;45440;-71
2023/12/27 10:03:34;;;;;;;;;9.75;7.00;;;;;10.49;68.53;101100.78;5040064;28;46007;-71
2023/12/27 10:06:11;;;;;;;;;8.00;8.00;;;;;10.61;68.08;101102.28;5022483;28;45369;-71
2023/12/27 10:08:39;;;;;;;;;8.75;6.00;;;;;10.67;67.74;101096.06;5022983;28;45281;-72
2023/12/27 10:11:06;;;;;;;;;15.00;9.00;;;;;10.76;67.96;101098.47;5040138;28;45281;-71
2023/12/27 10:13:32;;;;;;;;;15.50;8.50;;;;;10.82;67.79;101086.09;5022233;28;46079;-71
2023/12/27 10:15:58;;;;;;;;;10.00;7.75;;;;;10.90;67.45;101085.91;5017378;28;45195;-71
2023/12/27 10:18:23;;;;;;;;;13.00;8.25;;;;;10.96;67.53;101079.69;5032696;28;69415;-72
2023/12/27 10:20:49;;;;;;;;;10.25;8.00;;;;;11.02;66.61;101080.41;5021294;28;69767;-71
2023/12/27 10:23:15;;;;;;;;;9.25;8.00;;;;;11.07;66.77;101075.06;5015312;28;47230;-71
2023/12/27 10:25:41;;;;;;;;;9.00;7.75;;;;;11.11;66.32;101074.09;5021154;28;45333;-71
2023/12/27 10:28:06;;;;;;;;;9.50;7.25;;;;;11.14;66.30;101063.56;5020948;28;45333;-71
2023/12/27 10:30:31;;;;;;;;;8.00;6.00;;;;;11.17;66.01;101068.72;5036161;28;68767;-71
2023/12/27 10:33:00;;;;;;;;;5.00;3.75;;;;;11.19;66.05;101061.69;5026814;28;45355;-71
2023/12/27 10:35:31;;;;;;;;;8.00;7.00;;;;;11.20;65.27;101059.91;5019110;28;45956;-71
2023/12/27 10:38:07;;;;;;;;;6.25;6.00;;;;;11.20;65.48;101052.06;5030583;28;45325;-71
2023/12/27 10:40:37;;;;;;;;;6.75;6.25;;;;;11.20;65.41;101042.44;5018814;28;45661;-70
2023/12/27 10:43:03;;;;;;;;;8.25;6.25;;;;;11.24;65.19;101039.75;5018906;28;45336;-70
2023/12/27 10:45:28;;;;;;;;;6.25;5.25;;;;;11.25;64.86;101033.63;5037090;28;45671;-71
2023/12/27 10:48:01;;;;;;;;;9.00;3.50;;;;;11.27;65.11;101023.94;5035616;28;64472;-71
2023/12/27 10:50:28;;;;;;;;;6.25;4.00;;;;;11.27;64.53;101014.31;5003940;28;45259;-71
2023/12/27 10:53:08;;;;;;;;;7.25;6.00;;;;;11.31;64.58;101010.72;5037266;28;45492;-71
2023/12/27 10:55:34;;;;;;;;;9.25;6.75;;;;;11.36;64.53;101005.38;5012038;28;45488;-69
2023/12/27 10:58:02;;;;;;;;;8.25;6.00;;;;;11.40;64.33;101010.50;5037798;28;45321;-71
2023/12/27 11:00:28;;;;;;;;;5.25;5.00;;;;;11.42;63.95;101005.22;5023944;28;45447;-69
2023/12/27 11:02:54;;;;;;;;;5.00;4.00;;;;;11.44;64.24;100997.28;5042645;28;45511;-70
2023/12/27 11:05:22;;;;;;;;;8.50;6.50;;;;;11.48;63.92;100988.47;5025239;28;45371;-69
2023/12/27 11:07:48;;;;;;;;;8.50;6.00;;;;;11.50;63.72;100984.91;5027175;28;45370;-69
2023/12/27 11:10:16;;;;;;;;;5.00;5.00;;;;;11.51;63.85;100973.53;5025137;28;45440;-69
2023/12/27 11:12:46;;;;;;;;;8.00;4.25;;;;;11.56;63.90;100966.41;5040332;28;45324;-69
2023/12/27 11:15:13;;;;;;;;;7.00;6.00;;;;;11.59;63.84;100950.56;5039667;28;45878;-70